sensor_id;sensor_type;location;lat;lon;timestamp;pressure;altitude;pressure_sealevel;temperature
82638;BMP280;72318;36.628;-121.932;2024-02-28T00:02:10;101480.06;;;15.30
82638;BMP280;72318;36.628;-121.932;2024-02-28T00:07:11;101461.00;;;15.24
82638;BMP280;72318;36.628;-121.932;2024-02-28T00:12:11;101469.75;;;15.25
82638;BMP280;72318;36.628;-121.932;2024-02-28T00:17:13;101465.56;;;15.07
82638;BMP280;72318;36.628;-121.932;2024-02-28T00:22:14;101474.28;;;14.62
82638;BMP280;72318;36.628;-121.932;2024-02-28T00:27:15;101467.06;;;14.69
82638;BMP280;72318;36.628;-121.932;2024-02-28T00:32:15;101476.97;;;14.69
82638;BMP280;72318;36.628;-121.932;2024-02-28T00:37:16;101472.00;;;14.64
82638;BMP280;72318;36.628;-121.932;2024-02-28T00:42:17;101465.56;;;14.96
82638;BMP280;72318;36.628;-121.932;2024-02-28T00:47:18;101473.19;;;14.77
82638;BMP280;72318;36.628;-121.932;2024-02-28T00:52:19;101474.31;;;14.69
82638;BMP280;72318;36.628;-121.932;2024-02-28T00:57:19;101481.53;;;14.65
82638;BMP280;72318;36.628;-121.932;2024-02-28T01:02:21;101464.34;;;14.52
82638;BMP280;72318;36.628;-121.932;2024-02-28T01:07:22;101490.75;;;15.06
82638;BMP280;72318;36.628;-121.932;2024-02-28T01:12:22;101472.00;;;14.53
82638;BMP280;72318;36.628;-121.932;2024-02-28T01:17:23;101481.84;;;14.42
82638;BMP280;72318;36.628;-121.932;2024-02-28T01:22:24;101488.56;;;14.09
82638;BMP280;72318;36.628;-121.932;2024-02-28T01:27:25;101474.97;;;14.31
82638;BMP280;72318;36.628;-121.932;2024-02-28T01:32:26;101475.28;;;14.26
82638;BMP280;72318;36.628;-121.932;2024-02-28T01:37:27;101474.47;;;14.12
82638;BMP280;72318;36.628;-121.932;2024-02-28T01:42:28;101479.81;;;14.08
82638;BMP280;72318;36.628;-121.932;2024-02-28T01:47:29;101482.13;;;14.17
82638;BMP280;72318;36.628;-121.932;2024-02-28T01:52:30;101485.16;;;14.15
82638;BMP280;72318;36.628;-121.932;2024-02-28T01:57:31;101481.75;;;14.18
82638;BMP280;72318;36.628;-121.932;2024-02-28T02:02:31;101483.13;;;13.91
82638;BMP280;72318;36.628;-121.932;2024-02-28T02:07:32;101480.19;;;14.07
82638;BMP280;72318;36.628;-121.932;2024-02-28T02:12:33;101478.94;;;13.83
82638;BMP280;72318;36.628;-121.932;2024-02-28T02:17:34;101492.59;;;13.78
82638;BMP280;72318;36.628;-121.932;2024-02-28T02:22:39;101497.94;;;13.85
82638;BMP280;72318;36.628;-121.932;2024-02-28T02:27:40;101503.00;;;14.04
82638;BMP280;72318;36.628;-121.932;2024-02-28T02:32:40;101500.34;;;14.04
82638;BMP280;72318;36.628;-121.932;2024-02-28T02:37:45;101504.81;;;13.86
82638;BMP280;72318;36.628;-121.932;2024-02-28T02:42:48;101502.91;;;13.87
82638;BMP280;72318;36.628;-121.932;2024-02-28T02:47:49;101493.78;;;13.88
82638;BMP280;72318;36.628;-121.932;2024-02-28T02:52:50;101507.16;;;13.98
82638;BMP280;72318;36.628;-121.932;2024-02-28T02:57:51;101509.34;;;13.82
82638;BMP280;72318;36.628;-121.932;2024-02-28T03:02:52;101507.53;;;13.93
82638;BMP280;72318;36.628;-121.932;2024-02-28T03:07:52;101504.38;;;13.77
82638;BMP280;72318;36.628;-121.932;2024-02-28T03:12:53;101511.66;;;13.84
82638;BMP280;72318;36.628;-121.932;2024-02-28T03:17:54;101516.41;;;13.57
82638;BMP280;72318;36.628;-121.932;2024-02-28T03:22:55;101515.84;;;13.38
82638;BMP280;72318;36.628;-121.932;2024-02-28T03:27:55;101517.06;;;13.44
82638;BMP280;72318;36.628;-121.932;2024-02-28T03:32:56;101525.16;;;13.58
82638;BMP280;72318;36.628;-121.932;2024-02-28T03:37:57;101532.19;;;12.97
82638;BMP280;72318;36.628;-121.932;2024-02-28T03:42:58;101533.00;;;13.01
82638;BMP280;72318;36.628;-121.932;2024-02-28T03:47:59;101531.63;;;13.17
82638;BMP280;72318;36.628;-121.932;2024-02-28T03:52:59;101538.06;;;13.13
82638;BMP280;72318;36.628;-121.932;2024-02-28T03:58:00;101535.31;;;13.06
82638;BMP280;72318;36.628;-121.932;2024-02-28T04:03:01;101540.78;;;13.16
82638;BMP280;72318;36.628;-121.932;2024-02-28T04:08:02;101537.91;;;12.99
82638;BMP280;72318;36.628;-121.932;2024-02-28T04:13:03;101548.91;;;12.64
82638;BMP280;72318;36.628;-121.932;2024-02-28T04:18:04;101544.03;;;12.70
82638;BMP280;72318;36.628;-121.932;2024-02-28T04:23:05;101549.47;;;13.10
82638;BMP280;72318;36.628;-121.932;2024-02-28T04:28:06;101559.84;;;12.89
82638;BMP280;72318;36.628;-121.932;2024-02-28T04:33:08;101560.34;;;12.65
82638;BMP280;72318;36.628;-121.932;2024-02-28T04:38:09;101561.97;;;12.47
82638;BMP280;72318;36.628;-121.932;2024-02-28T04:43:09;101565.91;;;12.56
82638;BMP280;72318;36.628;-121.932;2024-02-28T04:48:10;101577.00;;;12.62
82638;BMP280;72318;36.628;-121.932;2024-02-28T04:53:11;101573.72;;;12.72
82638;BMP280;72318;36.628;-121.932;2024-02-28T04:58:12;101573.22;;;12.63
82638;BMP280;72318;36.628;-121.932;2024-02-28T05:03:12;101585.31;;;12.31
82638;BMP280;72318;36.628;-121.932;2024-02-28T05:08:13;101589.59;;;12.65
82638;BMP280;72318;36.628;-121.932;2024-02-28T05:13:14;101585.09;;;12.43
82638;BMP280;72318;36.628;-121.932;2024-02-28T05:18:15;101604.41;;;12.40
82638;BMP280;72318;36.628;-121.932;2024-02-28T05:23:16;101609.13;;;12.50
82638;BMP280;72318;36.628;-121.932;2024-02-28T05:28:16;101616.72;;;12.25
82638;BMP280;72318;36.628;-121.932;2024-02-28T05:33:17;101618.22;;;12.23
82638;BMP280;72318;36.628;-121.932;2024-02-28T05:38:18;101624.00;;;12.03
82638;BMP280;72318;36.628;-121.932;2024-02-28T05:43:19;101616.13;;;12.10
82638;BMP280;72318;36.628;-121.932;2024-02-28T05:48:20;101619.47;;;12.07
82638;BMP280;72318;36.628;-121.932;2024-02-28T05:53:21;101630.97;;;12.14
82638;BMP280;72318;36.628;-121.932;2024-02-28T05:58:25;101613.91;;;12.15
82638;BMP280;72318;36.628;-121.932;2024-02-28T06:03:25;101619.22;;;12.15
82638;BMP280;72318;36.628;-121.932;2024-02-28T06:08:26;101619.84;;;11.83
82638;BMP280;72318;36.628;-121.932;2024-02-28T06:13:28;101619.56;;;12.10
82638;BMP280;72318;36.628;-121.932;2024-02-28T06:18:28;101613.38;;;12.03
82638;BMP280;72318;36.628;-121.932;2024-02-28T06:23:29;101609.81;;;11.95
82638;BMP280;72318;36.628;-121.932;2024-02-28T06:28:30;101611.47;;;11.81
82638;BMP280;72318;36.628;-121.932;2024-02-28T06:33:31;101600.75;;;11.77
82638;BMP280;72318;36.628;-121.932;2024-02-28T06:38:32;101617.84;;;11.76
82638;BMP280;72318;36.628;-121.932;2024-02-28T06:43:36;101618.81;;;11.68
82638;BMP280;72318;36.628;-121.932;2024-02-28T06:48:36;101616.06;;;11.61
82638;BMP280;72318;36.628;-121.932;2024-02-28T06:53:37;101619.25;;;11.48
82638;BMP280;72318;36.628;-121.932;2024-02-28T06:58:38;101617.47;;;12.00
82638;BMP280;72318;36.628;-121.932;2024-02-28T07:03:39;101609.94;;;11.38
82638;BMP280;72318;36.628;-121.932;2024-02-28T07:08:40;101606.84;;;11.36
82638;BMP280;72318;36.628;-121.932;2024-02-28T07:13:41;101608.06;;;11.39
82638;BMP280;72318;36.628;-121.932;2024-02-28T07:18:42;101613.22;;;11.73
82638;BMP280;72318;36.628;-121.932;2024-02-28T07:23:42;101610.25;;;11.56
82638;BMP280;72318;36.628;-121.932;2024-02-28T07:28:43;101602.81;;;11.42
82638;BMP280;72318;36.628;-121.932;2024-02-28T07:33:45;101616.50;;;11.44
82638;BMP280;72318;36.628;-121.932;2024-02-28T07:38:46;101618.50;;;11.51
82638;BMP280;72318;36.628;-121.932;2024-02-28T07:43:47;101624.94;;;11.12
82638;BMP280;72318;36.628;-121.932;2024-02-28T07:48:47;101617.00;;;11.12
82638;BMP280;72318;36.628;-121.932;2024-02-28T07:53:48;101616.50;;;11.07
82638;BMP280;72318;36.628;-121.932;2024-02-28T07:58:49;101616.28;;;11.34
82638;BMP280;72318;36.628;-121.932;2024-02-28T08:03:50;101624.72;;;11.02
82638;BMP280;72318;36.628;-121.932;2024-02-28T08:08:51;101625.75;;;10.97
82638;BMP280;72318;36.628;-121.932;2024-02-28T08:13:51;101633.81;;;11.01
82638;BMP280;72318;36.628;-121.932;2024-02-28T08:18:52;101613.00;;;11.03
82638;BMP280;72318;36.628;-121.932;2024-02-28T08:23:53;101623.41;;;10.92
82638;BMP280;72318;36.628;-121.932;2024-02-28T08:28:54;101615.25;;;11.01
82638;BMP280;72318;36.628;-121.932;2024-02-28T08:33:55;101619.28;;;10.95
82638;BMP280;72318;36.628;-121.932;2024-02-28T08:38:55;101607.03;;;10.71
82638;BMP280;72318;36.628;-121.932;2024-02-28T08:43:56;101614.81;;;10.80
82638;BMP280;72318;36.628;-121.932;2024-02-28T08:48:57;101618.91;;;10.77
82638;BMP280;72318;36.628;-121.932;2024-02-28T08:53:58;101620.31;;;10.56
82638;BMP280;72318;36.628;-121.932;2024-02-28T08:58:59;101618.06;;;10.73
82638;BMP280;72318;36.628;-121.932;2024-02-28T09:04:00;101622.19;;;10.71
82638;BMP280;72318;36.628;-121.932;2024-02-28T09:09:01;101619.28;;;10.60
82638;BMP280;72318;36.628;-121.932;2024-02-28T09:14:02;101613.91;;;10.57
82638;BMP280;72318;36.628;-121.932;2024-02-28T09:19:04;101619.13;;;10.38
82638;BMP280;72318;36.628;-121.932;2024-02-28T09:24:05;101618.94;;;10.62
82638;BMP280;72318;36.628;-121.932;2024-02-28T09:29:06;101613.47;;;10.55
82638;BMP280;72318;36.628;-121.932;2024-02-28T09:34:06;101619.84;;;10.69
82638;BMP280;72318;36.628;-121.932;2024-02-28T09:39:07;101618.44;;;10.56
82638;BMP280;72318;36.628;-121.932;2024-02-28T09:44:08;101610.94;;;10.43
82638;BMP280;72318;36.628;-121.932;2024-02-28T09:49:10;101621.16;;;10.60
82638;BMP280;72318;36.628;-121.932;2024-02-28T09:54:11;101610.31;;;10.34
82638;BMP280;72318;36.628;-121.932;2024-02-28T09:59:12;101613.34;;;10.32
82638;BMP280;72318;36.628;-121.932;2024-02-28T10:04:13;101607.88;;;10.41
82638;BMP280;72318;36.628;-121.932;2024-02-28T10:09:14;101602.56;;;10.41
82638;BMP280;72318;36.628;-121.932;2024-02-28T10:14:18;101594.06;;;10.51
82638;BMP280;72318;36.628;-121.932;2024-02-28T10:19:19;101590.16;;;10.45
82638;BMP280;72318;36.628;-121.932;2024-02-28T10:24:20;101585.69;;;10.64
82638;BMP280;72318;36.628;-121.932;2024-02-28T10:29:25;101587.88;;;10.62
82638;BMP280;72318;36.628;-121.932;2024-02-28T10:34:26;101584.91;;;10.83
82638;BMP280;72318;36.628;-121.932;2024-02-28T10:39:26;101573.97;;;10.50
82638;BMP280;72318;36.628;-121.932;2024-02-28T10:44:29;101563.84;;;10.71
82638;BMP280;72318;36.628;-121.932;2024-02-28T10:49:30;101560.13;;;10.56
82638;BMP280;72318;36.628;-121.932;2024-02-28T10:54:33;101562.63;;;10.49
82638;BMP280;72318;36.628;-121.932;2024-02-28T10:59:37;101556.94;;;10.32
82638;BMP280;72318;36.628;-121.932;2024-02-28T11:04:38;101556.38;;;10.42
82638;BMP280;72318;36.628;-121.932;2024-02-28T11:09:41;101543.97;;;10.46
82638;BMP280;72318;36.628;-121.932;2024-02-28T11:14:41;101534.88;;;10.28
82638;BMP280;72318;36.628;-121.932;2024-02-28T11:19:42;101535.91;;;10.23
82638;BMP280;72318;36.628;-121.932;2024-02-28T11:24:44;101533.53;;;10.18
82638;BMP280;72318;36.628;-121.932;2024-02-28T11:29:45;101535.56;;;10.09
82638;BMP280;72318;36.628;-121.932;2024-02-28T11:34:46;101529.00;;;10.03
82638;BMP280;72318;36.628;-121.932;2024-02-28T11:39:47;101535.22;;;10.11
82638;BMP280;72318;36.628;-121.932;2024-02-28T11:44:55;101526.66;;;9.99
82638;BMP280;72318;36.628;-121.932;2024-02-28T11:50:03;101522.00;;;9.96
82638;BMP280;72318;36.628;-121.932;2024-02-28T11:55:04;101524.22;;;9.94
82638;BMP280;72318;36.628;-121.932;2024-02-28T12:00:09;101518.91;;;9.94
82638;BMP280;72318;36.628;-121.932;2024-02-28T12:05:10;101516.88;;;9.87
82638;BMP280;72318;36.628;-121.932;2024-02-28T12:10:11;101518.13;;;9.93
82638;BMP280;72318;36.628;-121.932;2024-02-28T12:15:12;101510.19;;;9.93
82638;BMP280;72318;36.628;-121.932;2024-02-28T12:20:13;101513.31;;;9.95
82638;BMP280;72318;36.628;-121.932;2024-02-28T12:25:14;101515.97;;;9.80
82638;BMP280;72318;36.628;-121.932;2024-02-28T12:30:14;101508.34;;;9.78
82638;BMP280;72318;36.628;-121.932;2024-02-28T12:35:15;101507.84;;;9.73
82638;BMP280;72318;36.628;-121.932;2024-02-28T12:40:16;101510.63;;;9.64
82638;BMP280;72318;36.628;-121.932;2024-02-28T12:45:17;101511.13;;;9.54
82638;BMP280;72318;36.628;-121.932;2024-02-28T12:50:18;101513.06;;;9.42
82638;BMP280;72318;36.628;-121.932;2024-02-28T12:55:20;101515.56;;;9.50
82638;BMP280;72318;36.628;-121.932;2024-02-28T13:00:20;101502.94;;;9.44
82638;BMP280;72318;36.628;-121.932;2024-02-28T13:05:21;101513.91;;;9.58
82638;BMP280;72318;36.628;-121.932;2024-02-28T13:10:22;101512.94;;;9.50
82638;BMP280;72318;36.628;-121.932;2024-02-28T13:15:23;101519.31;;;9.49
82638;BMP280;72318;36.628;-121.932;2024-02-28T13:20:24;101516.13;;;9.56
82638;BMP280;72318;36.628;-121.932;2024-02-28T13:25:24;101517.41;;;9.34
82638;BMP280;72318;36.628;-121.932;2024-02-28T13:30:25;101515.09;;;9.33
82638;BMP280;72318;36.628;-121.932;2024-02-28T13:35:26;101512.34;;;9.57
82638;BMP280;72318;36.628;-121.932;2024-02-28T13:40:27;101516.78;;;9.53
82638;BMP280;72318;36.628;-121.932;2024-02-28T13:45:28;101513.56;;;9.32
82638;BMP280;72318;36.628;-121.932;2024-02-28T13:50:28;101512.13;;;9.34
82638;BMP280;72318;36.628;-121.932;2024-02-28T13:55:29;101506.84;;;9.50
82638;BMP280;72318;36.628;-121.932;2024-02-28T14:00:30;101522.03;;;9.37
82638;BMP280;72318;36.628;-121.932;2024-02-28T14:05:31;101515.69;;;9.26
82638;BMP280;72318;36.628;-121.932;2024-02-28T14:10:32;101517.41;;;9.19
82638;BMP280;72318;36.628;-121.932;2024-02-28T14:15:32;101514.44;;;9.08
82638;BMP280;72318;36.628;-121.932;2024-02-28T14:20:33;101507.97;;;9.06
82638;BMP280;72318;36.628;-121.932;2024-02-28T14:25:34;101513.81;;;9.11
82638;BMP280;72318;36.628;-121.932;2024-02-28T14:30:35;101520.84;;;9.07
82638;BMP280;72318;36.628;-121.932;2024-02-28T14:35:36;101535.91;;;8.79
82638;BMP280;72318;36.628;-121.932;2024-02-28T14:40:36;101528.97;;;8.87
82638;BMP280;72318;36.628;-121.932;2024-02-28T14:45:37;101530.97;;;8.78
82638;BMP280;72318;36.628;-121.932;2024-02-28T14:50:38;101535.91;;;8.91
82638;BMP280;72318;36.628;-121.932;2024-02-28T14:55:39;101544.25;;;8.81
82638;BMP280;72318;36.628;-121.932;2024-02-28T15:00:40;101542.66;;;9.04
82638;BMP280;72318;36.628;-121.932;2024-02-28T15:05:41;101539.06;;;9.24
82638;BMP280;72318;36.628;-121.932;2024-02-28T15:10:42;101533.94;;;9.16
82638;BMP280;72318;36.628;-121.932;2024-02-28T15:15:42;101544.47;;;9.28
82638;BMP280;72318;36.628;-121.932;2024-02-28T15:20:43;101548.81;;;9.20
82638;BMP280;72318;36.628;-121.932;2024-02-28T15:25:44;101554.25;;;9.55
82638;BMP280;72318;36.628;-121.932;2024-02-28T15:30:45;101556.88;;;9.39
82638;BMP280;72318;36.628;-121.932;2024-02-28T15:35:46;101555.88;;;9.44
82638;BMP280;72318;36.628;-121.932;2024-02-28T15:40:47;101561.78;;;9.53
82638;BMP280;72318;36.628;-121.932;2024-02-28T15:45:48;101558.28;;;9.64
82638;BMP280;72318;36.628;-121.932;2024-02-28T15:50:48;101562.16;;;9.82
82638;BMP280;72318;36.628;-121.932;2024-02-28T15:55:49;101571.63;;;9.83
82638;BMP280;72318;36.628;-121.932;2024-02-28T16:00:50;101568.13;;;9.95
82638;BMP280;72318;36.628;-121.932;2024-02-28T16:05:51;101571.53;;;10.10
82638;BMP280;72318;36.628;-121.932;2024-02-28T16:10:52;101572.91;;;10.35
82638;BMP280;72318;36.628;-121.932;2024-02-28T16:15:53;101574.53;;;10.24
82638;BMP280;72318;36.628;-121.932;2024-02-28T16:20:55;101560.91;;;10.41
82638;BMP280;72318;36.628;-121.932;2024-02-28T16:25:56;101551.34;;;10.37
82638;BMP280;72318;36.628;-121.932;2024-02-28T16:30:57;101554.06;;;10.75
82638;BMP280;72318;36.628;-121.932;2024-02-28T16:35:58;101558.56;;;10.71
82638;BMP280;72318;36.628;-121.932;2024-02-28T16:40:59;101560.66;;;11.00
82638;BMP280;72318;36.628;-121.932;2024-02-28T16:45:59;101568.19;;;11.17
82638;BMP280;72318;36.628;-121.932;2024-02-28T16:51:00;101563.88;;;11.50
82638;BMP280;72318;36.628;-121.932;2024-02-28T16:56:01;101567.84;;;11.40
82638;BMP280;72318;36.628;-121.932;2024-02-28T17:01:02;101571.03;;;11.68
82638;BMP280;72318;36.628;-121.932;2024-02-28T17:06:03;101558.59;;;12.21
82638;BMP280;72318;36.628;-121.932;2024-02-28T17:11:04;101575.75;;;12.82
82638;BMP280;72318;36.628;-121.932;2024-02-28T17:16:05;101570.38;;;13.47
82638;BMP280;72318;36.628;-121.932;2024-02-28T17:21:08;101577.88;;;13.82
82638;BMP280;72318;36.628;-121.932;2024-02-28T17:26:09;101578.88;;;14.17
82638;BMP280;72318;36.628;-121.932;2024-02-28T17:31:10;101575.75;;;14.76
82638;BMP280;72318;36.628;-121.932;2024-02-28T17:36:10;101586.22;;;14.34
82638;BMP280;72318;36.628;-121.932;2024-02-28T17:41:11;101591.31;;;14.60
82638;BMP280;72318;36.628;-121.932;2024-02-28T17:46:12;101583.41;;;14.95
82638;BMP280;72318;36.628;-121.932;2024-02-28T17:51:14;101583.50;;;15.64
82638;BMP280;72318;36.628;-121.932;2024-02-28T17:56:14;101588.09;;;15.57
82638;BMP280;72318;36.628;-121.932;2024-02-28T18:01:15;101581.38;;;16.55
82638;BMP280;72318;36.628;-121.932;2024-02-28T18:06:16;101587.88;;;16.54
82638;BMP280;72318;36.628;-121.932;2024-02-28T18:11:27;101597.03;;;17.72
82638;BMP280;72318;36.628;-121.932;2024-02-28T18:16:27;101600.16;;;17.64
82638;BMP280;72318;36.628;-121.932;2024-02-28T18:21:28;101609.56;;;17.38
82638;BMP280;72318;36.628;-121.932;2024-02-28T18:26:29;101604.59;;;19.03
82638;BMP280;72318;36.628;-121.932;2024-02-28T18:31:30;101601.25;;;19.19
82638;BMP280;72318;36.628;-121.932;2024-02-28T18:36:31;101604.84;;;19.12
82638;BMP280;72318;36.628;-121.932;2024-02-28T18:41:32;101600.19;;;19.58
82638;BMP280;72318;36.628;-121.932;2024-02-28T18:46:32;101604.84;;;19.12
82638;BMP280;72318;36.628;-121.932;2024-02-28T18:51:34;101606.84;;;19.93
82638;BMP280;72318;36.628;-121.932;2024-02-28T18:56:34;101604.56;;;19.72
82638;BMP280;72318;36.628;-121.932;2024-02-28T19:01:35;101609.91;;;19.95
82638;BMP280;72318;36.628;-121.932;2024-02-28T19:06:36;101619.56;;;20.82
82638;BMP280;72318;36.628;-121.932;2024-02-28T19:11:37;101607.59;;;20.32
82638;BMP280;72318;36.628;-121.932;2024-02-28T19:16:38;101608.25;;;20.39
82638;BMP280;72318;36.628;-121.932;2024-02-28T19:21:39;101611.06;;;19.74
82638;BMP280;72318;36.628;-121.932;2024-02-28T19:26:40;101601.22;;;20.77
82638;BMP280;72318;36.628;-121.932;2024-02-28T19:31:41;101601.41;;;20.86
82638;BMP280;72318;36.628;-121.932;2024-02-28T19:36:42;101601.22;;;21.53
82638;BMP280;72318;36.628;-121.932;2024-02-28T19:41:43;101596.31;;;22.54
82638;BMP280;72318;36.628;-121.932;2024-02-28T19:46:44;101593.88;;;22.94
82638;BMP280;72318;36.628;-121.932;2024-02-28T19:51:45;101591.69;;;22.89
82638;BMP280;72318;36.628;-121.932;2024-02-28T19:56:46;101592.00;;;22.07
82638;BMP280;72318;36.628;-121.932;2024-02-28T20:01:47;101595.06;;;20.77
82638;BMP280;72318;36.628;-121.932;2024-02-28T20:06:48;101587.56;;;22.50
82638;BMP280;72318;36.628;-121.932;2024-02-28T20:11:48;101568.41;;;22.70
82638;BMP280;72318;36.628;-121.932;2024-02-28T20:16:49;101558.72;;;22.94
82638;BMP280;72318;36.628;-121.932;2024-02-28T20:21:50;101556.84;;;24.28
82638;BMP280;72318;36.628;-121.932;2024-02-28T20:26:51;101544.34;;;23.39
82638;BMP280;72318;36.628;-121.932;2024-02-28T20:31:52;101540.50;;;24.10
82638;BMP280;72318;36.628;-121.932;2024-02-28T20:36:53;101551.22;;;23.31
82638;BMP280;72318;36.628;-121.932;2024-02-28T20:41:53;101542.38;;;24.31
82638;BMP280;72318;36.628;-121.932;2024-02-28T20:46:54;101536.81;;;24.25
82638;BMP280;72318;36.628;-121.932;2024-02-28T20:51:55;101538.66;;;23.68
82638;BMP280;72318;36.628;-121.932;2024-02-28T20:56:56;101538.19;;;23.39
82638;BMP280;72318;36.628;-121.932;2024-02-28T21:01:56;101532.31;;;23.19
82638;BMP280;72318;36.628;-121.932;2024-02-28T21:06:57;101521.13;;;23.51
82638;BMP280;72318;36.628;-121.932;2024-02-28T21:12:02;101515.00;;;23.59
82638;BMP280;72318;36.628;-121.932;2024-02-28T21:17:03;101509.34;;;23.75
82638;BMP280;72318;36.628;-121.932;2024-02-28T21:22:04;101513.69;;;21.67
82638;BMP280;72318;36.628;-121.932;2024-02-28T21:27:05;101505.53;;;23.94
82638;BMP280;72318;36.628;-121.932;2024-02-28T21:32:05;101504.50;;;21.64
82638;BMP280;72318;36.628;-121.932;2024-02-28T21:37:06;101505.13;;;20.20
82638;BMP280;72318;36.628;-121.932;2024-02-28T21:42:07;101499.19;;;23.27
82638;BMP280;72318;36.628;-121.932;2024-02-28T21:47:08;101493.78;;;22.94
82638;BMP280;72318;36.628;-121.932;2024-02-28T21:52:11;101488.16;;;23.82
82638;BMP280;72318;36.628;-121.932;2024-02-28T21:57:12;101484.06;;;24.08
82638;BMP280;72318;36.628;-121.932;2024-02-28T22:02:13;101480.47;;;23.81
82638;BMP280;72318;36.628;-121.932;2024-02-28T22:07:14;101481.72;;;21.77
82638;BMP280;72318;36.628;-121.932;2024-02-28T22:12:15;101479.63;;;23.32
82638;BMP280;72318;36.628;-121.932;2024-02-28T22:17:16;101485.09;;;23.63
82638;BMP280;72318;36.628;-121.932;2024-02-28T22:22:16;101470.72;;;23.02
82638;BMP280;72318;36.628;-121.932;2024-02-28T22:27:17;101487.47;;;22.04
82638;BMP280;72318;36.628;-121.932;2024-02-28T22:32:18;101478.28;;;18.54
82638;BMP280;72318;36.628;-121.932;2024-02-28T22:37:19;101478.22;;;18.31
82638;BMP280;72318;36.628;-121.932;2024-02-28T22:42:19;101477.84;;;18.06
82638;BMP280;72318;36.628;-121.932;2024-02-28T22:47:20;101465.75;;;18.70
82638;BMP280;72318;36.628;-121.932;2024-02-28T22:52:21;101471.47;;;18.72
82638;BMP280;72318;36.628;-121.932;2024-02-28T22:57:22;101466.56;;;19.33
82638;BMP280;72318;36.628;-121.932;2024-02-28T23:02:23;101473.19;;;19.28
82638;BMP280;72318;36.628;-121.932;2024-02-28T23:07:23;101480.38;;;18.92
82638;BMP280;72318;36.628;-121.932;2024-02-28T23:12:24;101478.16;;;18.65
82638;BMP280;72318;36.628;-121.932;2024-02-28T23:17:25;101475.06;;;17.47
82638;BMP280;72318;36.628;-121.932;2024-02-28T23:22:26;101462.94;;;18.28
82638;BMP280;72318;36.628;-121.932;2024-02-28T23:27:29;101461.50;;;17.64
82638;BMP280;72318;36.628;-121.932;2024-02-28T23:32:30;101462.66;;;17.63
82638;BMP280;72318;36.628;-121.932;2024-02-28T23:37:31;101452.41;;;17.14
82638;BMP280;72318;36.628;-121.932;2024-02-28T23:42:32;101449.06;;;17.03
82638;BMP280;72318;36.628;-121.932;2024-02-28T23:47:33;101449.59;;;17.28
82638;BMP280;72318;36.628;-121.932;2024-02-28T23:52:34;101452.50;;;17.04
82638;BMP280;72318;36.628;-121.932;2024-02-28T23:57:35;101449.91;;;16.97
